Saint Helen, Michigan
Current Conditions -  °F | °C
As of 6:53 PM on Friday 21 Nov 2014 (Local Time) from KHTL Reporting Station
Clear Clear  
Wind Chill: 12°   Ceiling: Unl
Heat Index: 23°   Visibility: 10mi
Dew Point: 13°   Wind: 10mph
Humidity: 65%   Direction: 190°S
Pressure: 30.27"   Gusts: NA
Location:  44.36°N, 84.42°W
Report Text: KHTL 212353Z AUTO 19009KT 10SM CLR M05/M11 A3027 RMK AO2 SLP272 T10501106 11039 21061 57008
Loading
Personal Weather Stations






























Interactive Weather Map New forecast layout! Learn more

10-Day Weather Forecast

Advertisements
Track Severe Weather on mobile